Time;durP1;ratioP1;P1;durP2;ratioP2;P2;SDS_P1;SDS_P2;PMS_P1;PMS_P2;Temp;Humidity;BMP_temperature;BMP_pressure;BME280_temperature;BME280_humidity;BME280_pressure;Samples;Min_cycle;Max_cycle;Signal;HPM_P1;HPM_P2
2023/10/18 00:01:02;;;;;;;4.82;1.63;;;;;;;22.21;65.27;101148.59;5093589;28;20042;-49
2023/10/18 00:03:29;;;;;;;4.72;1.80;;;;;;;22.19;65.63;101148.03;5093311;28;20117;-50
2023/10/18 00:06:00;;;;;;;3.92;1.70;;;;;;;22.21;65.26;101151.31;5093876;28;20028;-52
2023/10/18 00:08:28;;;;;;;5.00;1.88;;;;;;;21.96;66.00;101156.75;5094048;28;20402;-46
2023/10/18 00:10:54;;;;;;;3.92;1.50;;;;;;;21.95;65.99;101149.69;5092948;28;20059;-48
2023/10/18 00:13:23;;;;;;;6.53;1.95;;;;;;;22.06;65.67;101148.56;5093025;28;20035;-51
2023/10/18 00:15:53;;;;;;;3.28;1.52;;;;;;;21.83;66.83;101149.97;5093221;28;20038;-49
2023/10/18 00:18:22;;;;;;;3.17;1.90;;;;;;;21.56;67.92;101147.53;5093533;28;20573;-49
2023/10/18 00:20:59;;;;;;;5.47;1.80;;;;;;;21.64;68.20;101146.97;5093367;28;20017;-49
2023/10/18 00:23:26;;;;;;;4.65;2.00;;;;;;;21.56;68.66;101142.88;5092897;28;20083;-47
2023/10/18 00:25:53;;;;;;;6.20;2.00;;;;;;;21.39;69.39;101141.50;5091230;28;20476;-48
2023/10/18 00:28:20;;;;;;;6.43;1.98;;;;;;;21.31;69.78;101149.13;5092867;28;20791;-48
2023/10/18 00:30:47;;;;;;;4.80;1.75;;;;;;;21.24;70.80;101142.28;5092970;28;20027;-51
2023/10/18 00:33:15;;;;;;;10.38;2.38;;;;;;;21.10;71.41;101142.00;5093572;28;20111;-49
2023/10/18 00:35:41;;;;;;;2.38;1.40;;;;;;;21.04;71.41;101143.03;5093262;28;20024;-51
2023/10/18 00:38:14;;;;;;;3.85;1.73;;;;;;;20.72;72.52;101144.03;5093145;28;20035;-48
2023/10/18 00:40:40;;;;;;;5.20;1.88;;;;;;;20.80;72.07;101132.63;5092963;28;20485;-50
2023/10/18 00:43:19;;;;;;;5.07;1.80;;;;;;;20.97;71.60;101137.84;5092848;28;20034;-48
2023/10/18 00:45:51;;;;;;;3.58;1.75;;;;;;;20.92;72.26;101134.31;5092961;28;20042;-50
2023/10/18 00:48:26;;;;;;;5.60;2.00;;;;;;;20.80;73.43;101129.91;5089476;28;20111;-49
2023/10/18 00:50:55;;;;;;;3.92;1.95;;;;;;;20.73;72.97;101134.78;5091143;28;20028;-47
2023/10/18 00:53:25;;;;;;;3.53;1.67;;;;;;;20.58;73.23;101133.91;5088751;28;20082;-48
2023/10/18 00:55:59;;;;;;;3.70;1.73;;;;;;;20.57;73.17;101135.81;5072986;28;20068;-46
2023/10/18 00:58:27;;;;;;;3.05;2.15;;;;;;;20.38;74.12;101132.72;5092113;28;20046;-47
2023/10/18 01:00:56;;;;;;;4.40;1.88;;;;;;;20.28;74.59;101128.03;5092668;28;20062;-52
2023/10/18 01:03:29;;;;;;;5.00;2.33;;;;;;;20.24;75.03;101134.25;5091319;28;20044;-44
2023/10/18 01:06:16;;;;;;;3.28;2.10;;;;;;;20.08;75.67;101136.06;5091071;28;20085;-51
2023/10/18 01:08:47;;;;;;;4.00;1.95;;;;;;;20.14;75.64;101140.44;5092744;28;20039;-51
2023/10/18 01:11:15;;;;;;;5.75;2.45;;;;;;;19.81;77.33;101133.41;5092280;28;20119;-51
2023/10/18 01:13:43;;;;;;;6.03;2.05;;;;;;;19.63;78.43;101134.66;5092429;28;20136;-48
2023/10/18 01:16:22;;;;;;;5.05;2.17;;;;;;;19.54;78.81;101144.28;5092220;28;20073;-51
2023/10/18 01:18:50;;;;;;;5.13;1.92;;;;;;;19.43;78.77;101142.56;5092615;28;20028;-52
2023/10/18 01:21:19;;;;;;;5.95;1.95;;;;;;;19.51;78.13;101152.97;5092715;28;20111;-51
2023/10/18 01:23:50;;;;;;;5.20;2.28;;;;;;;19.44;78.83;101141.53;5092569;28;20085;-48
2023/10/18 01:26:22;;;;;;;5.88;2.22;;;;;;;19.38;79.43;101148.78;5092624;28;20026;-52
2023/10/18 01:28:51;;;;;;;6.82;2.17;;;;;;;19.06;81.17;101140.59;5080651;28;20028;-52
2023/10/18 01:31:18;;;;;;;3.72;2.05;;;;;;;19.20;80.46;101136.38;5086684;28;20059;-50
2023/10/18 01:33:48;;;;;;;4.85;1.95;;;;;;;18.93;81.90;101133.69;5088437;28;20420;-50
2023/10/18 01:36:15;;;;;;;4.57;2.42;;;;;;;19.01;81.62;101137.81;5077610;28;20031;-52
2023/10/18 01:38:48;;;;;;;4.75;2.15;;;;;;;18.75;83.17;101135.88;5092592;28;20020;-49
2023/10/18 01:41:29;;;;;;;5.10;2.38;;;;;;;18.85;82.68;101136.00;5092423;28;20438;-49
2023/10/18 01:44:01;;;;;;;4.72;2.55;;;;;;;18.75;82.50;101128.56;5092287;28;20028;-50
2023/10/18 01:46:27;;;;;;;4.63;2.30;;;;;;;18.77;82.78;101133.72;5092205;28;20480;-51
2023/10/18 01:48:55;;;;;;;4.90;2.40;;;;;;;18.64;83.45;101141.16;5092105;28;20034;-51
2023/10/18 01:51:21;;;;;;;8.10;2.47;;;;;;;18.41;85.57;101141.41;5092279;28;20027;-52
2023/10/18 01:53:50;;;;;;;7.45;2.53;;;;;;;18.09;87.13;101139.31;5091806;28;20373;-48
2023/10/18 01:56:19;;;;;;;5.45;2.33;;;;;;;18.04;87.88;101146.56;5092207;28;20034;-51
2023/10/18 01:58:48;;;;;;;6.35;2.63;;;;;;;18.03;87.67;101145.72;5091725;28;20024;-50
2023/10/18 02:01:16;;;;;;;6.38;2.20;;;;;;;18.04;87.59;101141.94;5091963;28;20402;-48
2023/10/18 02:03:49;;;;;;;6.60;2.45;;;;;;;18.03;87.77;101151.16;5089920;28;20030;-48
2023/10/18 02:06:16;;;;;;;8.98;2.50;;;;;;;18.01;88.02;101157.91;5084649;28;20028;-49
2023/10/18 02:08:43;;;;;;;8.00;2.90;;;;;;;17.61;90.26;101154.25;5078368;28;20539;-51
2023/10/18 02:11:09;;;;;;;6.75;2.30;;;;;;;17.77;89.59;101155.38;5086343;28;20031;-50
2023/10/18 02:13:36;;;;;;;10.32;3.00;;;;;;;17.66;90.18;101164.34;5072983;28;20020;-48
2023/10/18 02:16:06;;;;;;;7.05;2.30;;;;;;;17.53;91.65;101159.25;5091671;28;20103;-51
2023/10/18 02:18:34;;;;;;;5.45;2.47;;;;;;;17.31;92.96;101164.53;5058090;28;20052;-47
2023/10/18 02:21:01;;;;;;;7.07;2.42;;;;;;;17.25;93.21;101168.22;5071104;28;20025;-49
2023/10/18 02:23:34;;;;;;;6.53;2.65;;;;;;;17.35;92.81;101166.50;5070993;28;20067;-48
2023/10/18 02:29:13;;;;;;;6.28;2.88;;;;;;;17.08;94.51;101177.09;5053643;28;20045;-48
2023/10/18 02:31:41;;;;;;;6.47;2.10;;;;;;;17.20;93.50;101176.22;5071561;28;20377;-48
2023/10/18 02:34:09;;;;;;;4.95;2.25;;;;;;;17.21;93.52;101181.38;5074710;28;20070;-51
2023/10/18 02:36:39;;;;;;;6.55;1.92;;;;;;;17.19;93.55;101182.69;5087183;28;20031;-48
2023/10/18 02:39:09;;;;;;;5.60;2.08;;;;;;;17.34;92.94;101188.41;5075204;28;20032;-49
2023/10/18 02:41:37;;;;;;;6.63;2.30;;;;;;;17.36;92.63;101178.16;5082464;28;20410;-48
2023/10/18 02:44:10;;;;;;;4.03;2.10;;;;;;;17.33;92.42;101189.47;5095282;28;20169;-48
2023/10/18 02:46:37;;;;;;;5.88;2.35;;;;;;;17.32;92.43;101182.41;5095227;28;20107;-48
2023/10/18 02:49:08;;;;;;;7.47;2.55;;;;;;;17.29;92.82;101178.31;5095048;28;20472;-48
2023/10/18 02:51:35;;;;;;;5.57;2.38;;;;;;;17.24;93.68;101186.31;5090609;23;20212;-51
2023/10/18 02:56:59;;;;;;;6.60;2.83;;;;;;;17.21;93.20;101186.78;5057695;28;20385;-49
2023/10/18 02:59:27;;;;;;;6.18;2.40;;;;;;;17.04;94.70;101188.63;5074738;28;20093;-48
2023/10/18 03:02:00;;;;;;;5.68;2.20;;;;;;;17.20;93.47;101192.44;5084567;28;20020;-51
2023/10/18 03:04:29;;;;;;;5.18;2.45;;;;;;;17.19;93.17;101194.34;5095077;28;20032;-51
2023/10/18 03:06:56;;;;;;;4.28;2.25;;;;;;;17.14;93.70;101188.84;5094935;28;20039;-51
2023/10/18 03:12:03;;;;;;;4.43;2.20;;;;;;;17.09;94.62;101194.13;5095239;28;20114;-50
2023/10/18 03:14:48;;;;;;;5.05;2.28;;;;;;;17.28;93.34;101192.91;5094766;28;20024;-51
2023/10/18 03:17:19;;;;;;;8.80;2.75;;;;;;;17.09;93.94;101196.84;5094851;28;20541;-51
2023/10/18 03:20:22;;;;;;;8.52;2.78;;;;;;;17.14;93.60;101200.47;5094442;28;20107;-50
2023/10/18 03:22:43;;;;;;;6.10;2.58;;;;;;;17.12;93.67;101201.78;5090568;28;20084;-49
2023/10/18 03:25:10;;;;;;;6.43;2.60;;;;;;;17.02;94.12;101205.09;5094696;28;20032;-50
2023/10/18 03:27:41;;;;;;;6.95;2.78;;;;;;;17.01;94.51;101206.16;5094664;28;20032;-47
2023/10/18 03:30:18;;;;;;;9.68;2.92;;;;;;;16.96;95.60;101206.06;5088322;28;20025;-48
2023/10/18 03:32:49;;;;;;;9.30;2.85;;;;;;;17.10;94.31;101206.59;5074267;28;20115;-48
2023/10/18 03:35:21;;;;;;;9.63;2.83;;;;;;;16.96;95.12;101202.53;5054523;28;20037;-50
2023/10/18 03:37:48;;;;;;;7.15;2.80;;;;;;;17.13;94.48;101212.34;5054075;28;20032;-48
2023/10/18 03:40:19;;;;;;;4.65;2.38;;;;;;;17.03;94.76;101206.75;5062092;28;20024;-51
2023/10/18 03:42:46;;;;;;;7.38;2.92;;;;;;;16.91;95.33;101207.84;5073904;28;20033;-50
2023/10/18 03:45:13;;;;;;;6.55;2.97;;;;;;;17.05;94.99;101207.34;5073679;28;20020;-50
2023/10/18 03:47:41;;;;;;;4.97;2.40;;;;;;;16.98;94.74;101208.53;5072504;28;20029;-50
2023/10/18 03:50:15;;;;;;;8.02;3.58;;;;;;;16.87;95.47;101205.59;5073457;28;20028;-51
2023/10/18 03:52:45;;;;;;;6.00;2.78;;;;;;;16.88;95.86;101198.34;5072512;28;20051;-51
2023/10/18 03:55:17;;;;;;;6.20;2.42;;;;;;;17.03;95.58;101201.34;5073363;28;20032;-48
2023/10/18 03:57:44;;;;;;;4.78;2.50;;;;;;;16.68;97.93;101214.09;5073903;28;20174;-48
2023/10/18 04:02:59;;;;;;;5.68;2.50;;;;;;;16.80;96.85;101214.91;5073537;28;20036;-47
2023/10/18 04:08:14;;;;;;;3.90;2.35;;;;;;;16.98;95.56;101213.94;5074116;28;20093;-50
2023/10/18 04:10:42;;;;;;;6.40;1.90;;;;;;;16.97;95.28;101218.53;5073305;28;20021;-50
2023/10/18 04:13:12;;;;;;;11.13;3.08;;;;;;;16.95;95.03;101209.00;5073635;28;20111;-51
2023/10/18 04:15:41;;;;;;;5.45;2.50;;;;;;;16.95;94.85;101212.53;5073646;28;20028;-51
2023/10/18 04:20:35;;;;;;;5.68;2.40;;;;;;;16.78;96.33;101219.75;5073132;28;20032;-48
2023/10/18 04:26:00;;;;;;;7.32;2.47;;;;;;;16.68;97.45;101224.91;5053617;28;20079;-51
2023/10/18 04:28:37;;;;;;;9.50;2.75;;;;;;;16.93;95.28;101216.53;5067059;28;20087;-48
2023/10/18 04:31:12;;;;;;;7.03;2.80;;;;;;;16.79;96.09;101227.63;5073343;28;20060;-51
2023/10/18 04:33:42;;;;;;;5.82;2.60;;;;;;;16.85;95.32;101223.13;5073075;28;20021;-49
2023/10/18 04:36:12;;;;;;;4.47;2.50;;;;;;;16.74;96.02;101223.97;5073236;28;20024;-49
2023/10/18 04:38:46;;;;;;;5.65;2.63;;;;;;;16.90;95.49;101223.25;5072408;28;20046;-48
2023/10/18 04:41:23;;;;;;;3.88;2.53;;;;;;;16.76;96.04;101230.78;5073124;28;20032;-49
2023/10/18 04:44:08;;;;;;;6.93;2.30;;;;;;;16.77;95.46;101231.63;5072489;28;20029;-51
2023/10/18 04:46:38;;;;;;;5.53;2.30;;;;;;;16.54;97.72;101230.53;5072777;28;20029;-50
2023/10/18 04:54:17;;;;;;;9.05;2.58;;;;;;;16.56;97.81;101230.31;5072771;28;20028;-50
2023/10/18 04:56:45;;;;;;;5.55;1.95;;;;;;;16.59;97.47;101229.81;5072616;28;20544;-50
2023/10/18 05:04:29;;;;;;;10.27;3.28;;;;;;;16.48;98.55;101236.88;5052769;28;20498;-49
2023/10/18 05:07:00;;;;;;;7.47;2.75;;;;;;;16.50;98.43;101234.78;5052524;28;20029;-51
2023/10/18 05:09:32;;;;;;;9.52;3.05;;;;;;;16.56;98.00;101233.03;5052001;28;20103;-50
2023/10/18 05:12:47;;;;;;;8.52;3.00;;;;;;;16.43;98.99;101227.84;5059528;28;20492;-48
2023/10/18 05:15:42;;;;;;;10.48;3.67;;;;;;;16.40;99.47;101239.94;5061481;28;20485;-48
2023/10/18 05:17:43;;;;;;;7.43;3.25;;;;;;;16.38;99.57;101239.38;5064591;28;20044;-50
2023/10/18 05:22:59;;;;;;;7.65;2.92;;;;;;;16.35;100.00;101237.13;5072209;28;20020;-49
2023/10/18 05:25:35;;;;;;;7.30;2.90;;;;;;;16.34;100.00;101239.00;5072248;28;20081;-51
2023/10/18 05:43:59;;;;;;;9.55;2.63;;;;;;;16.13;100.00;101239.56;5071375;28;20033;-51
2023/10/18 05:46:29;;;;;;;6.50;2.80;;;;;;;15.97;100.00;101238.38;5071704;28;20032;-51
2023/10/18 05:48:59;;;;;;;7.85;2.47;;;;;;;15.92;100.00;101237.41;5071006;28;20194;-51
2023/10/18 05:51:37;;;;;;;5.60;2.60;;;;;;;15.78;100.00;101231.41;5071449;28;20131;-49
2023/10/18 05:54:04;;;;;;;4.22;1.80;;;;;;;15.91;100.00;101233.09;5071694;28;20051;-51
2023/10/18 05:56:37;;;;;;;7.07;2.42;;;;;;;15.93;100.00;101245.28;5072005;28;20024;-51
2023/10/18 05:59:27;;;;;;;5.40;2.85;;;;;;;15.87;100.00;101235.41;5071570;28;20384;-50
2023/10/18 06:02:23;;;;;;;4.57;2.13;;;;;;;15.98;100.00;101242.72;5071000;28;20032;-48
2023/10/18 06:04:44;;;;;;;4.07;2.15;;;;;;;16.04;100.00;101241.78;5050990;28;20041;-49
2023/10/18 06:07:10;;;;;;;4.10;2.08;;;;;;;15.92;100.00;101243.63;5051610;28;20029;-50
2023/10/18 06:09:46;;;;;;;4.95;2.47;;;;;;;15.78;100.00;101236.81;5050493;28;20037;-50
2023/10/18 06:12:22;;;;;;;6.75;2.30;;;;;;;15.88;100.00;101242.47;5061775;28;20496;-51
2023/10/18 06:14:52;;;;;;;5.07;2.35;;;;;;;15.83;100.00;101243.16;5071591;28;20037;-49
2023/10/18 06:17:46;;;;;;;5.05;2.20;;;;;;;15.87;100.00;101243.50;5071402;28;20108;-50
2023/10/18 06:20:29;;;;;;;4.13;2.30;;;;;;;15.96;100.00;101250.22;5070945;28;20160;-48
2023/10/18 06:23:09;;;;;;;4.53;2.22;;;;;;;16.06;100.00;101249.66;5071642;28;20029;-50
2023/10/18 06:25:44;;;;;;;4.28;1.98;;;;;;;15.88;100.00;101249.72;5071287;28;20028;-51
2023/10/18 06:28:11;;;;;;;5.40;2.03;;;;;;;15.93;100.00;101249.84;5071214;28;20036;-51
2023/10/18 06:30:41;;;;;;;6.07;2.95;;;;;;;15.88;100.00;101242.47;5071274;28;20033;-51
2023/10/18 06:33:15;;;;;;;4.93;2.67;;;;;;;15.87;100.00;101246.22;5071488;28;20388;-50
2023/10/18 06:35:42;;;;;;;5.43;1.92;;;;;;;15.85;100.00;101240.22;5071437;28;20071;-49
2023/10/18 06:38:17;;;;;;;4.93;2.40;;;;;;;15.90;100.00;101240.34;5071208;28;20033;-49
2023/10/18 06:40:51;;;;;;;4.75;2.33;;;;;;;15.76;100.00;101242.41;5070755;28;20032;-51
2023/10/18 06:43:20;;;;;;;3.53;1.90;;;;;;;15.79;100.00;101238.44;5071365;28;20029;-51
2023/10/18 06:45:50;;;;;;;5.47;2.75;;;;;;;15.75;100.00;101235.38;5071335;28;20028;-51
2023/10/18 06:48:17;;;;;;;4.47;2.70;;;;;;;15.73;100.00;101240.19;5071053;28;20157;-50
2023/10/18 06:50:48;;;;;;;8.38;3.92;;;;;;;15.67;100.00;101232.22;5042289;23;20057;-49
2023/10/18 06:53:15;;;;;;;6.97;4.03;;;;;;;15.59;100.00;101234.13;5030742;28;20116;-50
2023/10/18 07:00:51;;;;;;;3.95;2.33;;;;;;;15.59;99.78;101234.13;5031134;28;20108;-48
2023/10/18 07:03:24;;;;;;;5.07;2.05;;;;;;;15.52;100.00;101233.41;5031161;28;20053;-52
2023/10/18 07:05:52;;;;;;;2.97;2.15;;;;;;;15.51;100.00;101237.16;5031111;28;20556;-47
2023/10/18 07:08:34;;;;;;;5.15;3.10;;;;;;;15.54;99.84;101242.09;5030876;28;20363;-50
2023/10/18 07:11:08;;;;;;;4.82;2.20;;;;;;;15.52;99.64;101243.38;5031123;28;20041;-49
2023/10/18 07:13:38;;;;;;;4.88;2.40;;;;;;;15.51;99.74;101245.25;5030893;28;20037;-47
2023/10/18 07:16:13;;;;;;;4.82;2.80;;;;;;;15.45;99.51;101251.56;5030977;28;20080;-49
2023/10/18 07:18:39;;;;;;;4.22;2.58;;;;;;;15.40;99.81;101246.03;5030933;28;20065;-51
2023/10/18 07:21:06;;;;;;;3.67;2.10;;;;;;;15.42;99.42;101240.41;5032091;28;20053;-48
2023/10/18 07:23:37;;;;;;;4.30;2.15;;;;;;;15.40;99.56;101245.22;5034812;28;20636;-48
2023/10/18 07:26:07;;;;;;;6.40;2.22;;;;;;;15.34;99.64;101240.72;5034374;28;20029;-48
2023/10/18 07:28:36;;;;;;;5.25;3.28;;;;;;;15.34;99.58;101249.63;5034405;28;20033;-49
2023/10/18 07:31:10;;;;;;;5.50;2.47;;;;;;;15.30;99.69;101243.88;5034438;28;20021;-48
2023/10/18 07:33:40;;;;;;;4.45;2.58;;;;;;;15.25;99.74;101237.50;5037758;28;20059;-47
2023/10/18 07:36:17;;;;;;;6.38;2.90;;;;;;;15.16;100.00;101241.59;5041710;28;20382;-47
2023/10/18 07:38:47;;;;;;;3.90;1.90;;;;;;;15.17;99.61;101246.75;5054156;28;20412;-47
2023/10/18 07:41:14;;;;;;;3.60;1.70;;;;;;;15.13;99.02;101242.03;5036721;28;20022;-50
2023/10/18 07:43:44;;;;;;;2.63;1.75;;;;;;;15.12;99.21;101233.13;5031618;28;20025;-48
2023/10/18 07:46:16;;;;;;;2.38;1.55;;;;;;;15.11;98.56;101236.03;5034157;28;20026;-48
2023/10/18 07:48:47;;;;;;;5.57;1.98;;;;;;;15.05;98.28;101230.50;5039411;28;20039;-49
2023/10/18 07:51:26;;;;;;;2.58;1.70;;;;;;;15.08;97.73;101240.00;5054057;28;20563;-49
2023/10/18 07:53:54;;;;;;;4.32;1.92;;;;;;;15.11;96.88;101234.16;5036053;28;20037;-50
2023/10/18 07:56:27;;;;;;;3.05;1.60;;;;;;;15.01;96.70;101240.09;5050601;28;20037;-49
2023/10/18 07:58:55;;;;;;;2.65;2.00;;;;;;;14.91;96.19;101229.00;5053477;28;20060;-50
2023/10/18 08:04:05;;;;;;;1.00;0.82;;;;;;;14.67;96.00;101235.28;5054431;28;20093;-50
2023/10/18 08:06:34;;;;;;;1.77;1.00;;;;;;;14.62;95.62;101235.97;5053563;28;20040;-50
2023/10/18 08:09:05;;;;;;;3.03;1.15;;;;;;;14.64;94.98;101236.56;5053221;28;20159;-50
2023/10/18 08:11:34;;;;;;;1.98;1.00;;;;;;;14.59;94.28;101222.09;5053309;28;20111;-50
2023/10/18 08:14:09;;;;;;;1.15;0.80;;;;;;;14.58;93.63;101225.84;5053764;28;20119;-49
2023/10/18 08:16:44;;;;;;;2.22;0.82;;;;;;;14.53;93.65;101219.25;5052184;28;20032;-51
2023/10/18 08:19:13;;;;;;;;;;;;;;;14.20;93.63;101221.41;5053684;28;20037;-48
2023/10/18 08:21:39;;;;;;;1.25;0.90;;;;;;;14.25;93.04;101222.38;5042816;28;19949;-49
2023/10/18 08:24:13;;;;;;;0.65;0.60;;;;;;;14.34;92.57;101224.81;5038901;28;20033;-51
2023/10/18 08:26:48;;;;;;;0.50;0.50;;;;;;;14.33;92.10;101220.47;5049409;28;20029;-48
2023/10/18 08:29:15;;;;;;;;;;;;;;;14.29;92.11;101217.41;5034453;28;20421;-48
2023/10/18 08:31:48;;;;;;;2.17;0.80;;;;;;;13.89;93.38;101225.81;5052936;28;19917;-50
2023/10/18 08:34:15;;;;;;;1.20;0.95;;;;;;;13.72;95.17;101222.00;5051942;28;20454;-50
2023/10/18 08:36:45;;;;;;;2.40;0.75;;;;;;;13.56;96.17;101234.09;5052798;28;20025;-49
2023/10/18 08:39:12;;;;;;;1.65;1.00;;;;;;;13.52;96.21;101221.28;5037386;28;20025;-49
2023/10/18 08:42:10;;;;;;;0.63;0.60;;;;;;;13.30;97.59;101232.38;5051861;28;20593;-50
2023/10/18 08:44:39;;;;;;;1.08;0.70;;;;;;;13.05;99.55;101228.75;5026097;28;20045;-47
2023/10/18 08:49:52;;;;;;;0.90;0.77;;;;;;;13.52;96.16;101226.66;5052240;28;20041;-49
2023/10/18 08:52:30;;;;;;;1.58;0.70;;;;;;;13.62;95.27;101222.47;5052350;28;20044;-47
2023/10/18 08:55:19;;;;;;;0.70;0.50;;;;;;;13.62;94.70;101232.41;5052367;28;20496;-47
2023/10/18 08:57:45;;;;;;;0.77;0.60;;;;;;;13.63;94.43;101224.09;5051775;28;20488;-49
2023/10/18 09:02:53;;;;;;;0.70;0.63;;;;;;;13.71;93.87;101220.31;5052310;28;20033;-49
2023/10/18 09:05:24;;;;;;;0.60;0.60;;;;;;;13.74;93.65;101220.72;5052491;28;20338;-47
2023/10/18 09:08:07;;;;;;;1.02;0.60;;;;;;;13.76;93.02;101223.19;5051911;28;20048;-50
2023/10/18 09:18:22;;;;;;;1.42;0.80;;;;;;;13.68;93.11;101221.59;5048433;28;20493;-47
2023/10/18 09:20:49;;;;;;;1.83;0.70;;;;;;;13.66;93.06;101217.50;5052201;28;20033;-50
2023/10/18 09:23:20;;;;;;;1.33;0.52;;;;;;;13.69;92.83;101222.41;5051992;28;20492;-47
2023/10/18 09:25:48;;;;;;;1.83;0.82;;;;;;;13.71;92.72;101215.78;5051821;28;20058;-50
2023/10/18 09:28:36;;;;;;;1.95;0.80;;;;;;;13.68;92.58;101226.16;5051611;28;20021;-48
2023/10/18 09:31:10;;;;;;;1.30;0.90;;;;;;;13.65;92.84;101223.88;5051511;28;20549;-47
2023/10/18 09:33:58;;;;;;;2.00;0.75;;;;;;;13.68;92.65;101224.28;5051772;28;20024;-50
2023/10/18 09:36:24;;;;;;;1.02;0.77;;;;;;;13.68;92.49;101226.97;5051851;28;20112;-47
2023/10/18 09:38:55;;;;;;;1.08;0.80;;;;;;;13.72;92.35;101224.69;5051500;28;20094;-50
2023/10/18 09:41:26;;;;;;;0.90;0.70;;;;;;;13.68;92.16;101223.47;5044754;28;20048;-47
2023/10/18 09:43:53;;;;;;;0.95;0.60;;;;;;;13.67;92.57;101224.50;5040746;28;20454;-50
2023/10/18 09:46:19;;;;;;;2.30;0.90;;;;;;;13.68;92.60;101218.09;5040200;28;20328;-47
2023/10/18 09:48:47;;;;;;;1.00;0.90;;;;;;;13.69;92.25;101217.84;5044429;28;20124;-50
2023/10/18 09:51:16;;;;;;;1.25;0.80;;;;;;;13.68;91.83;101218.91;5050558;28;20039;-49
2023/10/18 09:53:46;;;;;;;1.52;0.80;;;;;;;13.63;91.96;101218.72;5049641;28;20083;-49
2023/10/18 09:56:14;;;;;;;0.60;0.50;;;;;;;13.66;91.56;101220.19;5050887;28;20025;-50
2023/10/18 09:58:48;;;;;;;3.08;0.93;;;;;;;13.59;91.34;101214.00;5039287;28;20096;-48
2023/10/18 10:02:07;;;;;;;0.98;0.77;;;;;;;13.56;91.24;101211.75;5051270;28;20086;-48
2023/10/18 10:04:04;;;;;;;0.68;0.68;;;;;;;13.54;91.22;101205.75;5037145;28;20123;-50
2023/10/18 10:06:31;;;;;;;1.80;0.70;;;;;;;13.54;91.12;101203.06;5051169;28;20045;-48
2023/10/18 10:09:12;;;;;;;1.67;1.05;;;;;;;13.56;91.35;101206.38;5050651;28;20159;-48
2023/10/18 10:11:43;;;;;;;1.92;0.80;;;;;;;13.55;91.33;101205.56;5051234;28;20051;-50
2023/10/18 10:14:21;;;;;;;1.95;1.00;;;;;;;13.52;90.98;101205.16;5051088;28;20091;-50
2023/10/18 10:17:05;;;;;;;1.15;0.75;;;;;;;13.48;90.91;101194.00;5050851;28;20489;-50
2023/10/18 10:19:46;;;;;;;1.60;0.93;;;;;;;13.43;90.84;101208.09;5051062;28;20039;-50
2023/10/18 10:22:15;;;;;;;1.42;0.90;;;;;;;13.41;90.52;101198.59;5049818;28;20104;-51
2023/10/18 10:24:43;;;;;;;1.70;0.85;;;;;;;13.39;90.66;101190.75;5050975;28;20061;-51
2023/10/18 10:27:27;;;;;;;1.83;0.80;;;;;;;13.39;90.33;101196.13;5051049;28;20053;-47
2023/10/18 10:32:46;;;;;;;2.38;1.05;;;;;;;13.34;89.94;101189.75;5051568;28;20557;-50
2023/10/18 10:35:20;;;;;;;1.05;0.63;;;;;;;13.29;90.08;101187.72;5051048;28;20655;-49
2023/10/18 10:37:52;;;;;;;1.25;0.70;;;;;;;13.26;89.95;101185.44;5051065;28;20393;-49
2023/10/18 10:43:12;;;;;;;0.60;0.60;;;;;;;13.23;89.49;101185.88;5050424;28;20045;-48
2023/10/18 10:46:00;;;;;;;1.38;0.80;;;;;;;13.22;89.59;101184.25;5048797;28;20560;-50
2023/10/18 10:48:32;;;;;;;0.85;0.60;;;;;;;13.17;89.63;101181.34;5030366;28;20575;-49
2023/10/18 10:51:16;;;;;;;0.47;0.47;;;;;;;13.16;89.60;101182.38;5042553;28;20267;-49
2023/10/18 10:54:06;;;;;;;1.42;0.50;;;;;;;13.16;89.81;101185.06;5051002;28;20033;-50
2023/10/18 10:56:33;;;;;;;0.90;0.45;;;;;;;13.14;89.91;101185.25;5039823;28;20601;-49
2023/10/18 10:59:09;;;;;;;0.75;0.50;;;;;;;13.10;89.99;101180.53;5054327;28;20040;-50
2023/10/18 11:02:39;;;;;;;0.85;0.50;;;;;;;13.13;90.08;101186.31;5037717;28;20040;-50
2023/10/18 11:04:46;;;;;;;1.45;0.55;;;;;;;13.08;90.59;101183.44;5037006;28;20037;-47
2023/10/18 11:07:13;;;;;;;1.13;0.50;;;;;;;13.15;90.30;101178.84;5051160;28;20042;-50
2023/10/18 11:09:42;;;;;;;0.73;0.55;;;;;;;13.20;90.37;101187.09;5042399;28;20025;-48
2023/10/18 11:12:11;;;;;;;0.73;0.50;;;;;;;13.22;90.38;101186.09;5036512;28;20123;-49
2023/10/18 11:14:38;;;;;;;0.95;0.70;;;;;;;13.20;90.29;101195.16;5042564;28;20022;-50
2023/10/18 11:17:29;;;;;;;0.90;0.63;;;;;;;13.15;90.57;101183.41;5054492;28;20492;-46
2023/10/18 11:19:58;;;;;;;1.27;0.60;;;;;;;13.12;91.04;101199.97;5053256;28;20049;-47
2023/10/18 11:22:29;;;;;;;0.73;0.60;;;;;;;13.12;91.07;101198.09;5053484;28;20090;-48
2023/10/18 11:24:59;;;;;;;0.70;0.60;;;;;;;13.09;91.33;101190.44;5054233;28;20096;-47
2023/10/18 11:27:33;;;;;;;2.10;0.60;;;;;;;13.10;91.24;101193.97;5047150;28;20469;-47
2023/10/18 11:30:16;;;;;;;0.70;0.60;;;;;;;13.12;91.31;101194.59;5047883;28;20358;-48
2023/10/18 11:32:44;;;;;;;1.10;0.70;;;;;;;13.13;91.34;101188.16;5053819;28;20037;-50
2023/10/18 11:35:12;;;;;;;1.10;0.70;;;;;;;13.11;91.66;101192.94;5053465;28;20036;-48
2023/10/18 11:37:43;;;;;;;1.90;0.80;;;;;;;13.12;91.91;101195.41;5054251;28;20056;-48
2023/10/18 11:40:21;;;;;;;2.58;0.80;;;;;;;13.14;92.00;101200.56;5053412;28;20104;-48
2023/10/18 11:43:09;;;;;;;0.70;0.70;;;;;;;13.18;91.19;101196.41;5053471;28;20041;-50
2023/10/18 11:45:38;;;;;;;1.30;0.85;;;;;;;13.14;91.30;101195.19;5073434;23;20105;-49
2023/10/18 11:48:14;;;;;;;3.15;1.05;;;;;;;13.09;91.70;101203.88;5071910;28;20593;-48
2023/10/18 11:50:47;;;;;;;1.48;0.80;;;;;;;13.13;91.64;101213.19;5073488;28;20111;-50
2023/10/18 11:53:17;;;;;;;2.20;1.00;;;;;;;13.16;92.01;101209.25;5073512;28;20032;-48
2023/10/18 11:56:08;;;;;;;2.45;1.10;;;;;;;13.14;92.32;101214.00;5073504;28;20028;-50
2023/10/18 11:58:41;;;;;;;1.70;0.90;;;;;;;13.13;92.20;101218.56;5073479;28;20042;-50
2023/10/18 12:01:19;;;;;;;1.20;1.00;;;;;;;13.09;93.16;101216.50;5073583;28;20056;-50
2023/10/18 12:03:48;;;;;;;1.35;1.00;;;;;;;13.13;93.01;101215.88;5073427;28;20032;-47
2023/10/18 12:06:14;;;;;;;0.93;0.73;;;;;;;13.09;93.05;101211.94;5073040;28;20039;-49
2023/10/18 12:08:47;;;;;;;1.08;0.90;;;;;;;13.09;92.77;101211.94;5071752;28;20038;-50
2023/10/18 12:11:14;;;;;;;1.08;0.70;;;;;;;13.07;92.76;101215.91;5073591;28;20021;-47
2023/10/18 12:13:41;;;;;;;1.33;1.00;;;;;;;13.04;92.56;101213.63;5073319;28;20029;-50
2023/10/18 12:16:08;;;;;;;1.50;0.80;;;;;;;13.07;91.99;101213.22;5072795;28;20120;-49
2023/10/18 12:18:38;;;;;;;0.85;0.65;;;;;;;12.99;92.32;101211.56;5072996;28;20082;-48
2023/10/18 12:21:07;;;;;;;1.38;0.90;;;;;;;12.98;92.42;101211.78;5072604;28;20540;-50
2023/10/18 12:23:35;;;;;;;1.10;0.80;;;;;;;12.96;92.39;101212.00;5071410;28;20090;-51
2023/10/18 12:26:06;;;;;;;1.92;0.98;;;;;;;13.08;91.98;101217.53;5093416;28;20043;-51
2023/10/18 12:28:41;;;;;;;1.50;1.10;;;;;;;12.98;93.17;101219.84;5080808;28;20437;-50
2023/10/18 12:31:12;;;;;;;;;;;;;;;13.03;93.18;101222.72;5075018;28;20441;-51
2023/10/18 12:33:48;;;;;;;3.05;0.90;;;;;;;12.99;93.17;101222.31;5093540;28;20628;-48
2023/10/18 12:36:22;;;;;;;1.98;1.00;;;;;;;13.20;92.88;101208.59;5060032;28;20033;-48
2023/10/18 12:38:49;;;;;;;1.73;1.00;;;;;;;13.29;92.99;101214.59;5053132;28;20017;-50
2023/10/18 12:43:45;;;;;;;2.50;1.10;;;;;;;13.15;94.39;101212.97;5073181;28;20036;-51
2023/10/18 12:46:21;;;;;;;2.55;1.20;;;;;;;13.00;94.76;101207.06;5073129;28;20048;-50
2023/10/18 12:48:56;;;;;;;1.88;0.82;;;;;;;13.04;94.95;101205.56;5074826;28;20039;-50
2023/10/18 12:51:30;;;;;;;1.50;0.70;;;;;;;13.20;94.81;101210.47;5093055;28;20035;-50
2023/10/18 12:54:02;;;;;;;1.27;1.03;;;;;;;13.06;95.16;101211.56;5093301;28;20046;-50
2023/10/18 12:58:59;;;;;;;1.48;1.00;;;;;;;12.88;95.54;101209.53;5093124;28;20052;-48
2023/10/18 13:01:59;;;;;;;0.93;0.82;;;;;;;12.89;95.37;101211.22;5074952;28;20060;-51
2023/10/18 13:04:18;;;;;;;1.58;0.90;;;;;;;12.88;95.30;101207.72;5084776;28;20427;-49
2023/10/18 13:06:46;;;;;;;2.75;1.20;;;;;;;12.98;95.84;101206.41;5080567;28;20028;-45